KMVN/MVN METAR and TAF weather

Enter ICAO airport designator
Station Type Date Time Source
KMVN METAR 2023/02/05 13:56 UTC NOAA

KMVN 051356Z AUTO 21009KT 10SM CLR 03/M01 A3005 RMK AO2 SLP182 T00331006


Station Type Date Time Source
KMVN Decoded METAR 2023/02/05 13:56 UTC NOAA

Mount Vernon, Mount Vernon Airport, IL, United States (KMVN) 38-19N 088-52W
Feb 05, 2023 - 08:56 AM EST / 2023.02.05 1356 UTC
Wind: from the SSW (210 degrees) at 10 MPH (9 KT):0
Visibility: 10 mile(s):0
Sky conditions: clear
Temperature: 37.9 F (3.3 C)
Dew Point: 30.9 F (-0.6 C)
Relative Humidity: 75%
Pressure (altimeter): 30.05 in. Hg (1017 hPa)
ob: KMVN 051356Z AUTO 21009KT 10SM CLR 03/M01 A3005 RMK AO2 SLP182 T00331006
cycle: 14

Station Type Date Time Source
KMVN TAF 2023/02/05 12:21 UTC NOAA

TAF KMVN 051120Z 0512/0612 21010KT P6SM BKN250 WS020/24040KT
FM051500 23012KT P6SM SCT250
FM052300 25006KT P6SM SKC
FM060600 VRB03KT P6SM SKC

Example: see airport list